Time;durP1;ratioP1;P1;durP2;ratioP2;P2;SDS_P1;SDS_P2;PMS_P1;PMS_P2;Temp;Humidity;BMP_temperature;BMP_pressure;BME280_temperature;BME280_humidity;BME280_pressure;Samples;Min_cycle;Max_cycle;Signal;HPM_P1;HPM_P2
2022/10/17 00:01:41;;;;;;;3.40;2.60;;;;;;;15.62;100.00;99581.59;5026368;28;20217;-81
2022/10/17 00:04:09;;;;;;;7.07;2.57;;;;;;;15.67;100.00;99582.97;5030129;28;20201;-81
2022/10/17 00:06:38;;;;;;;7.53;3.00;;;;;;;15.67;100.00;99584.78;5034548;28;20237;-81
2022/10/17 00:09:08;;;;;;;4.93;3.43;;;;;;;15.64;100.00;99590.38;5028899;28;20201;-82
2022/10/17 00:11:38;;;;;;;9.70;4.83;;;;;;;15.63;100.00;99584.19;5025360;28;20198;-82
2022/10/17 00:14:06;;;;;;;6.63;3.80;;;;;;;15.58;100.00;99575.63;5031454;28;20234;-82
2022/10/17 00:16:36;;;;;;;5.50;4.13;;;;;;;15.59;100.00;99571.97;5025690;28;20687;-81
2022/10/17 00:19:06;;;;;;;5.13;2.90;;;;;;;15.58;100.00;99582.78;5022781;28;20197;-82
2022/10/17 00:21:34;;;;;;;5.17;3.03;;;;;;;15.41;100.00;99594.75;5024674;28;20244;-82
2022/10/17 00:24:04;;;;;;;8.03;3.20;;;;;;;15.37;100.00;99590.66;5028161;28;20278;-81
2022/10/17 00:26:33;;;;;;;4.37;3.07;;;;;;;15.36;100.00;99592.47;5034602;28;20245;-82
2022/10/17 00:29:04;;;;;;;5.90;2.87;;;;;;;15.31;100.00;99596.44;5084165;28;20199;-81
2022/10/17 00:31:34;;;;;;;5.13;3.00;;;;;;;15.43;100.00;99596.34;5090608;28;20210;-82
2022/10/17 00:34:04;;;;;;;5.43;3.03;;;;;;;15.33;100.00;99607.84;5083463;28;20249;-81
2022/10/17 00:36:33;;;;;;;7.77;2.97;;;;;;;15.28;100.00;99610.88;5084783;28;20237;-82
2022/10/17 00:39:02;;;;;;;7.27;3.20;;;;;;;15.32;100.00;99616.81;5093234;28;20191;-81
2022/10/17 00:41:32;;;;;;;5.23;2.90;;;;;;;15.26;100.00;99612.81;5087826;28;20202;-82
2022/10/17 00:44:05;;;;;;;7.97;3.80;;;;;;;15.32;100.00;99601.66;5087586;28;20211;-81
2022/10/17 00:46:35;;;;;;;7.37;3.00;;;;;;;15.22;100.00;99607.81;5087620;28;20257;-81
2022/10/17 00:49:07;;;;;;;7.03;3.33;;;;;;;15.23;100.00;99612.19;5088856;28;20272;-81
2022/10/17 00:51:41;;;;;;;7.10;3.30;;;;;;;15.27;100.00;99616.34;5088114;28;20650;-82
2022/10/17 00:54:14;;;;;;;4.20;2.63;;;;;;;15.36;100.00;99615.63;5088253;28;20195;-81
2022/10/17 00:56:43;;;;;;;3.33;2.53;;;;;;;15.28;100.00;99618.03;5091017;28;20187;-81
2022/10/17 00:59:16;;;;;;;5.63;2.90;;;;;;;15.13;100.00;99630.72;5048204;28;20196;-81
2022/10/17 01:01:51;;;;;;;7.33;3.00;;;;;;;15.27;100.00;99627.88;4952911;28;20207;-81
2022/10/17 01:04:20;;;;;;;4.07;3.27;;;;;;;15.47;100.00;99626.34;4932276;29;20197;-81
2022/10/17 01:06:48;;;;;;;4.87;3.30;;;;;;;15.60;100.00;99629.78;4932161;29;20205;-81
2022/10/17 01:09:17;;;;;;;7.40;3.47;;;;;;;15.67;100.00;99633.69;4926636;29;20213;-81
2022/10/17 01:11:52;;;;;;;6.70;3.37;;;;;;;15.57;100.00;99639.84;4926927;29;20241;-82
2022/10/17 01:14:32;;;;;;;7.40;3.47;;;;;;;15.65;100.00;99640.97;4885295;29;20228;-81
2022/10/17 01:17:08;;;;;;;7.57;3.57;;;;;;;15.72;100.00;99646.69;4942758;28;20199;-81
2022/10/17 01:20:06;;;;;;;6.07;3.17;;;;;;;15.78;100.00;99643.53;5002972;28;20196;-82
2022/10/17 01:22:45;;;;;;;8.20;3.50;;;;;;;15.88;100.00;99646.34;5081026;28;20215;-81
2022/10/17 01:25:26;;;;;;;6.03;3.33;;;;;;;15.87;100.00;99650.00;5085495;28;20195;-81
2022/10/17 01:28:23;;;;;;;6.40;3.10;;;;;;;15.79;100.00;99645.25;5084803;28;20195;-81
2022/10/17 01:31:09;;;;;;;7.57;3.20;;;;;;;15.64;100.00;99638.44;5090273;28;20235;-81
2022/10/17 01:33:48;;;;;;;8.20;3.30;;;;;;;15.65;100.00;99637.47;5083259;28;20195;-82
2022/10/17 01:36:29;;;;;;;8.07;3.07;;;;;;;15.72;100.00;99633.31;5087563;28;20195;-82
2022/10/17 01:39:02;;;;;;;6.50;3.30;;;;;;;15.76;100.00;99631.28;5085885;28;20218;-82
2022/10/17 01:41:39;;;;;;;6.20;3.00;;;;;;;15.61;100.00;99623.47;5094378;28;20188;-81
2022/10/17 01:44:15;;;;;;;4.17;2.97;;;;;;;15.71;100.00;99631.63;5088673;28;20243;-82
2022/10/17 01:46:49;;;;;;;5.90;3.00;;;;;;;15.69;100.00;99638.91;5094898;28;20224;-82
2022/10/17 01:49:24;;;;;;;6.03;2.90;;;;;;;15.60;100.00;99637.81;5092637;28;20222;-82
2022/10/17 01:51:57;;;;;;;6.27;2.97;;;;;;;15.55;100.00;99637.28;5058425;28;20218;-82
2022/10/17 01:54:33;;;;;;;6.37;3.20;;;;;;;15.61;100.00;99634.16;5086689;28;20200;-82
2022/10/17 01:57:06;;;;;;;7.13;3.60;;;;;;;15.61;100.00;99630.63;5091393;28;20364;-82
2022/10/17 01:59:40;;;;;;;5.07;3.10;;;;;;;15.56;100.00;99633.66;5088714;28;20192;-82
2022/10/17 02:02:14;;;;;;;10.37;3.40;;;;;;;15.52;100.00;99626.81;5093477;28;20255;-82
2022/10/17 02:04:43;;;;;;;7.00;3.90;;;;;;;15.41;100.00;99633.00;5094765;28;20220;-82
2022/10/17 02:07:14;;;;;;;6.20;3.53;;;;;;;15.39;100.00;99632.25;5088936;28;20187;-82
2022/10/17 02:09:43;;;;;;;7.03;3.30;;;;;;;15.41;100.00;99633.00;5061212;28;20195;-82
2022/10/17 02:12:35;;;;;;;4.30;3.00;;;;;;;15.34;100.00;99630.91;5092980;28;20245;-82
2022/10/17 02:15:32;;;;;;;4.07;3.00;;;;;;;15.32;100.00;99628.34;5102498;28;20192;-82
2022/10/17 02:18:11;;;;;;;4.10;3.30;;;;;;;15.19;100.00;99622.25;5089914;28;20199;-82
2022/10/17 02:20:51;;;;;;;5.60;3.30;;;;;;;15.20;100.00;99636.44;5095582;28;20199;-82
2022/10/17 02:23:27;;;;;;;5.53;3.77;;;;;;;15.18;100.00;99624.06;5089622;28;20242;-82
2022/10/17 02:26:07;;;;;;;7.90;3.07;;;;;;;15.17;100.00;99625.03;5092646;28;20256;-82
2022/10/17 02:28:42;;;;;;;4.40;3.00;;;;;;;15.12;100.00;99631.69;5088757;28;20241;-81
2022/10/17 02:31:16;;;;;;;2.73;2.40;;;;;;;15.09;100.00;99629.25;5090075;28;20256;-82
2022/10/17 02:33:54;;;;;;;5.47;3.40;;;;;;;15.05;100.00;99633.94;5087056;28;20207;-82
2022/10/17 02:36:26;;;;;;;6.17;3.20;;;;;;;15.07;100.00;99637.38;5086672;28;20195;-82
2022/10/17 02:38:55;;;;;;;4.40;3.00;;;;;;;14.97;100.00;99638.19;5092914;28;20233;-81
2022/10/17 02:41:25;;;;;;;8.00;3.50;;;;;;;15.02;100.00;99628.00;5040438;28;20237;-82
2022/10/17 02:43:54;;;;;;;4.17;3.20;;;;;;;15.03;100.00;99641.22;4993378;28;20698;-82
2022/10/17 02:46:31;;;;;;;7.17;3.10;;;;;;;15.10;100.00;99634.47;4989168;28;20289;-82
2022/10/17 02:49:07;;;;;;;4.83;3.10;;;;;;;15.10;100.00;99641.63;4987336;28;20226;-82
2022/10/17 02:51:46;;;;;;;3.47;3.17;;;;;;;15.05;100.00;99641.94;4993570;28;20206;-82
2022/10/17 02:54:20;;;;;;;4.33;2.90;;;;;;;14.92;100.00;99634.97;4989696;28;20651;-82
2022/10/17 02:56:59;;;;;;;4.10;3.07;;;;;;;15.06;100.00;99629.50;4952214;29;20248;-82
2022/10/17 02:59:30;;;;;;;5.03;2.70;;;;;;;15.04;100.00;99632.25;4953507;29;20199;-81
2022/10/17 03:02:03;;;;;;;9.23;2.93;;;;;;;14.87;100.00;99638.00;4966116;28;20193;-82
2022/10/17 03:04:34;;;;;;;4.93;2.90;;;;;;;14.85;100.00;99635.44;5008985;28;20219;-81
2022/10/17 03:07:02;;;;;;;4.27;2.70;;;;;;;14.94;100.00;99641.91;5007831;28;20229;-82
2022/10/17 03:09:31;;;;;;;5.23;3.20;;;;;;;14.97;100.00;99641.69;5011728;28;20203;-82
2022/10/17 03:12:00;;;;;;;8.13;3.50;;;;;;;14.92;100.00;99649.16;5004042;28;20225;-82
2022/10/17 03:14:29;;;;;;;4.73;3.20;;;;;;;14.98;100.00;99642.53;5010488;28;20642;-82
2022/10/17 03:16:58;;;;;;;10.13;3.23;;;;;;;14.95;100.00;99637.41;5017318;28;20202;-82
2022/10/17 03:19:27;;;;;;;6.33;3.40;;;;;;;14.99;100.00;99644.25;5012102;28;20190;-82
2022/10/17 03:21:58;;;;;;;4.37;3.03;;;;;;;15.08;100.00;99641.75;5040627;28;20194;-81
2022/10/17 03:24:28;;;;;;;8.60;3.60;;;;;;;15.00;100.00;99649.47;5083832;28;20303;-81
2022/10/17 03:26:57;;;;;;;7.23;3.60;;;;;;;14.96;100.00;99652.44;5077550;28;20195;-82
2022/10/17 03:29:28;;;;;;;6.10;3.63;;;;;;;14.96;100.00;99649.78;5044090;28;20259;-82
2022/10/17 03:31:56;;;;;;;6.67;3.20;;;;;;;14.97;100.00;99644.38;4995959;28;20464;-82
2022/10/17 03:34:24;;;;;;;9.17;3.73;;;;;;;14.87;100.00;99652.19;5001641;28;20202;-81
2022/10/17 03:36:53;;;;;;;3.87;3.57;;;;;;;14.82;100.00;99646.34;4980163;28;20229;-81
2022/10/17 03:39:23;;;;;;;6.73;3.57;;;;;;;14.86;100.00;99657.63;5008342;28;20202;-81
2022/10/17 03:41:52;;;;;;;5.70;3.30;;;;;;;14.88;100.00;99651.22;4991775;28;20203;-81
2022/10/17 03:44:20;;;;;;;8.23;3.80;;;;;;;14.94;100.00;99652.56;4985511;28;20285;-82
2022/10/17 03:46:49;;;;;;;4.10;3.70;;;;;;;14.92;100.00;99651.84;4987292;28;20194;-82
2022/10/17 03:49:18;;;;;;;7.07;3.40;;;;;;;14.96;100.00;99660.47;5015241;28;20196;-82
2022/10/17 03:51:47;;;;;;;8.37;3.90;;;;;;;15.13;100.00;99660.91;5061351;28;20238;-82
2022/10/17 03:54:15;;;;;;;6.27;3.70;;;;;;;15.17;100.00;99666.88;5063480;28;20204;-82
2022/10/17 03:56:45;;;;;;;6.20;4.17;;;;;;;15.30;100.00;99669.47;5066831;28;20184;-82
2022/10/17 03:59:17;;;;;;;8.17;4.03;;;;;;;15.35;100.00;99665.50;5065438;28;20225;-81
2022/10/17 04:01:46;;;;;;;8.70;4.03;;;;;;;15.34;100.00;99666.44;5083621;28;20245;-81
2022/10/17 04:04:21;;;;;;;5.83;3.70;;;;;;;15.32;100.00;99676.38;5087583;28;20254;-81
2022/10/17 04:06:49;;;;;;;9.97;4.33;;;;;;;15.38;100.00;99677.75;5046161;28;20189;-81
2022/10/17 04:09:18;;;;;;;10.50;4.60;;;;;;;15.39;100.00;99682.13;5041137;28;20192;-82
2022/10/17 04:11:51;;;;;;;6.50;4.93;;;;;;;15.41;100.00;99685.53;5042369;28;20363;-82
2022/10/17 04:14:20;;;;;;;8.00;4.90;;;;;;;15.24;100.00;99681.44;5046222;28;20264;-81
2022/10/17 04:16:49;;;;;;;9.03;4.80;;;;;;;15.35;100.00;99686.00;5043165;28;20189;-81
2022/10/17 04:19:18;;;;;;;8.63;4.97;;;;;;;15.37;100.00;99690.25;5015163;28;20233;-82
2022/10/17 04:21:50;;;;;;;7.63;5.03;;;;;;;15.30;100.00;99683.66;5046262;28;20192;-82
2022/10/17 04:24:19;;;;;;;7.33;4.20;;;;;;;15.32;100.00;99683.56;5054937;28;20771;-81
2022/10/17 04:26:52;;;;;;;8.30;4.20;;;;;;;15.26;100.00;99689.38;5025157;28;20662;-81
2022/10/17 04:29:21;;;;;;;5.87;3.87;;;;;;;15.06;100.00;99694.38;5028532;28;20260;-82
2022/10/17 04:31:51;;;;;;;5.87;3.70;;;;;;;14.98;100.00;99696.75;5021809;28;20197;-82
2022/10/17 04:34:19;;;;;;;5.73;3.30;;;;;;;14.88;100.00;99696.56;5024467;28;20256;-81
2022/10/17 04:36:48;;;;;;;6.50;3.77;;;;;;;14.89;100.00;99692.94;5027287;28;20299;-82
2022/10/17 04:39:16;;;;;;;6.63;3.23;;;;;;;14.78;100.00;99687.53;5027551;28;20207;-82
2022/10/17 04:41:46;;;;;;;9.03;3.70;;;;;;;14.79;100.00;99680.38;5027749;28;20229;-82
2022/10/17 04:44:17;;;;;;;5.30;3.33;;;;;;;14.91;100.00;99690.16;5023509;28;20751;-82
2022/10/17 04:46:46;;;;;;;6.40;3.40;;;;;;;14.80;100.00;99682.09;5027137;28;20224;-82
2022/10/17 04:49:16;;;;;;;4.97;3.20;;;;;;;14.67;100.00;99684.81;5000379;28;20190;-82
2022/10/17 04:51:46;;;;;;;6.33;3.73;;;;;;;14.59;100.00;99676.50;5068429;28;20257;-82
2022/10/17 04:54:16;;;;;;;6.67;3.10;;;;;;;14.67;100.00;99678.59;5087819;28;20207;-82
2022/10/17 04:56:46;;;;;;;9.27;3.43;;;;;;;14.66;100.00;99674.22;5092113;28;20215;-81
2022/10/17 04:59:14;;;;;;;4.83;3.20;;;;;;;14.64;100.00;99687.66;5009757;28;20199;-81
2022/10/17 05:01:44;;;;;;;6.07;3.40;;;;;;;14.54;100.00;99692.81;5009304;28;20665;-81
2022/10/17 05:04:13;;;;;;;3.63;3.10;;;;;;;14.59;100.00;99703.16;5003121;28;20275;-82
2022/10/17 05:06:41;;;;;;;6.03;3.70;;;;;;;14.60;100.00;99713.72;5006441;28;20260;-82
2022/10/17 05:09:10;;;;;;;10.57;3.80;;;;;;;14.71;100.00;99712.94;5010028;28;20194;-81
2022/10/17 05:11:41;;;;;;;6.10;3.77;;;;;;;14.67;100.00;99699.91;5011454;28;20252;-81
2022/10/17 05:14:12;;;;;;;8.70;3.90;;;;;;;14.73;100.00;99703.00;5012351;28;20230;-81
2022/10/17 05:16:43;;;;;;;7.53;3.97;;;;;;;14.74;100.00;99704.72;5003581;28;20189;-81
2022/10/17 05:19:14;;;;;;;6.83;3.70;;;;;;;14.85;100.00;99703.91;5042709;28;20193;-81
2022/10/17 05:21:43;;;;;;;7.20;3.40;;;;;;;14.80;100.00;99706.09;4972411;28;20254;-81
2022/10/17 05:24:15;;;;;;;9.97;4.07;;;;;;;14.82;100.00;99701.50;4968198;28;20593;-81
2022/10/17 05:26:45;;;;;;;5.77;3.57;;;;;;;14.76;100.00;99697.44;4973648;28;20203;-82
2022/10/17 05:29:14;;;;;;;5.60;3.90;;;;;;;14.83;100.00;99704.03;4973208;28;20200;-82
2022/10/17 05:31:44;;;;;;;8.80;4.13;;;;;;;14.81;100.00;99703.31;4970404;28;20236;-80
2022/10/17 05:34:14;;;;;;;9.23;4.30;;;;;;;14.89;100.00;99703.59;4981423;28;20202;-81
2022/10/17 05:36:42;;;;;;;9.47;4.30;;;;;;;14.86;100.00;99694.97;5011996;28;20198;-81
2022/10/17 05:39:12;;;;;;;5.17;3.73;;;;;;;14.91;100.00;99699.97;5009989;28;20206;-81
2022/10/17 05:41:42;;;;;;;8.20;3.63;;;;;;;14.94;100.00;99705.06;5005908;28;20618;-81
2022/10/17 05:44:13;;;;;;;9.13;3.80;;;;;;;14.81;100.00;99708.66;5007994;28;20190;-80
2022/10/17 05:46:43;;;;;;;8.17;4.00;;;;;;;14.84;100.00;99719.06;5064600;28;20238;-81
2022/10/17 05:49:12;;;;;;;10.03;3.67;;;;;;;14.82;100.00;99718.34;5089877;28;20245;-81
2022/10/17 05:51:59;;;;;;;11.07;3.73;;;;;;;14.79;100.00;99725.72;5093557;28;20203;-82
2022/10/17 05:54:27;;;;;;;9.57;3.67;;;;;;;14.87;100.00;99718.03;5042599;28;20222;-81
2022/10/17 05:56:56;;;;;;;5.10;3.60;;;;;;;14.88;100.00;99723.25;5092798;28;20196;-81
2022/10/17 05:59:26;;;;;;;10.40;4.07;;;;;;;14.89;100.00;99724.09;5085363;28;20187;-82
2022/10/17 06:01:56;;;;;;;9.17;4.27;;;;;;;14.85;100.00;99714.59;5047620;28;20221;-81
2022/10/17 06:04:26;;;;;;;7.80;3.77;;;;;;;14.93;100.00;99720.22;5046793;28;20192;-81
2022/10/17 06:06:57;;;;;;;6.53;4.17;;;;;;;15.02;100.00;99721.38;5047672;28;20217;-81
2022/10/17 06:09:26;;;;;;;5.83;3.47;;;;;;;14.97;100.00;99729.72;5051340;28;20197;-81
2022/10/17 06:11:57;;;;;;;4.97;3.77;;;;;;;15.01;100.00;99744.53;5042493;28;20193;-81
2022/10/17 06:14:26;;;;;;;5.70;4.00;;;;;;;14.94;100.00;99735.25;5034020;28;20224;-81
2022/10/17 06:16:58;;;;;;;5.47;3.80;;;;;;;14.85;100.00;99726.13;5047877;28;20275;-81
2022/10/17 06:19:27;;;;;;;5.57;3.73;;;;;;;14.85;100.00;99736.78;5054626;28;20646;-81
2022/10/17 06:21:55;;;;;;;8.30;3.67;;;;;;;14.95;100.00;99736.13;5090659;28;20207;-82
2022/10/17 06:24:27;;;;;;;8.87;4.20;;;;;;;14.90;100.00;99744.47;5048910;28;20730;-82
2022/10/17 06:26:55;;;;;;;7.87;4.63;;;;;;;14.81;100.00;99743.31;5047912;28;20267;-82
2022/10/17 06:29:26;;;;;;;10.87;4.73;;;;;;;14.79;100.00;99741.72;5050654;28;20220;-82
2022/10/17 06:31:57;;;;;;;6.73;4.33;;;;;;;14.83;100.00;99743.19;5052332;28;20193;-82
2022/10/17 06:34:26;;;;;;;7.63;4.30;;;;;;;14.89;100.00;99748.09;5047462;28;20193;-82
2022/10/17 06:36:54;;;;;;;9.40;4.13;;;;;;;14.87;100.00;99748.22;5001438;28;20644;-82
2022/10/17 06:39:25;;;;;;;5.50;4.10;;;;;;;15.06;100.00;99754.88;5013424;28;20225;-82
2022/10/17 06:41:54;;;;;;;6.87;4.50;;;;;;;15.07;100.00;99754.78;5021546;28;20204;-82
2022/10/17 06:44:27;;;;;;;8.03;5.90;;;;;;;15.17;100.00;99753.13;5050836;28;20196;-82
2022/10/17 06:46:57;;;;;;;8.30;6.07;;;;;;;15.23;100.00;99757.16;5047196;28;20240;-82
2022/10/17 06:49:26;;;;;;;8.87;5.33;;;;;;;15.21;100.00;99763.56;5046927;28;20193;-81
2022/10/17 06:51:54;;;;;;;8.63;5.20;;;;;;;15.25;100.00;99762.38;5050217;28;20201;-82
2022/10/17 06:54:24;;;;;;;8.30;5.27;;;;;;;15.32;100.00;99759.13;5004221;28;20200;-82
2022/10/17 06:56:53;;;;;;;9.30;5.20;;;;;;;15.37;100.00;99758.81;5055248;28;20256;-82
2022/10/17 06:59:21;;;;;;;7.13;4.47;;;;;;;15.39;100.00;99763.06;5091204;28;20746;-82
2022/10/17 07:01:50;;;;;;;7.50;4.50;;;;;;;15.48;100.00;99763.34;5086125;28;20241;-82
2022/10/17 07:04:20;;;;;;;11.07;5.53;;;;;;;15.45;100.00;99759.09;5089984;28;20195;-81
2022/10/17 07:06:51;;;;;;;7.93;5.00;;;;;;;15.46;100.00;99768.81;5089099;28;20690;-81
2022/10/17 07:09:19;;;;;;;6.77;4.83;;;;;;;15.54;100.00;99765.53;5068562;28;20208;-80
2022/10/17 07:11:51;;;;;;;7.50;4.70;;;;;;;15.55;100.00;99768.13;5067327;28;20202;-81
2022/10/17 07:14:21;;;;;;;8.10;4.53;;;;;;;15.73;100.00;99768.59;5070061;28;20226;-81
2022/10/17 07:16:50;;;;;;;4.67;4.10;;;;;;;15.74;100.00;99771.16;5072274;28;20254;-81
2022/10/17 07:19:21;;;;;;;7.10;4.20;;;;;;;15.77;100.00;99763.88;5067337;28;20265;-82
2022/10/17 07:21:49;;;;;;;8.00;4.40;;;;;;;15.77;100.00;99766.53;5032386;28;20252;-80
2022/10/17 07:24:18;;;;;;;5.23;3.63;;;;;;;15.80;100.00;99774.31;5030866;28;20236;-82
2022/10/17 07:26:46;;;;;;;7.23;4.13;;;;;;;15.94;100.00;99779.47;5032767;28;20267;-82
2022/10/17 07:29:16;;;;;;;9.03;4.23;;;;;;;16.05;100.00;99779.50;5024517;28;20259;-81
2022/10/17 07:31:47;;;;;;;10.03;4.53;;;;;;;16.18;100.00;99788.28;5032182;28;20230;-82
2022/10/17 07:34:16;;;;;;;9.73;4.77;;;;;;;16.18;100.00;99776.72;4995243;28;20200;-81
2022/10/17 07:36:46;;;;;;;12.13;4.90;;;;;;;16.35;100.00;99780.78;5047099;28;20222;-81
2022/10/17 07:39:17;;;;;;;6.73;4.80;;;;;;;16.48;100.00;99778.84;5056605;28;20195;-81
2022/10/17 07:41:46;;;;;;;7.50;4.70;;;;;;;16.71;100.00;99766.38;5090198;28;20203;-82
2022/10/17 07:44:15;;;;;;;7.57;4.10;;;;;;;16.79;100.00;99759.44;5085177;28;20199;-82
2022/10/17 07:46:43;;;;;;;9.00;4.20;;;;;;;16.87;100.00;99762.31;5084814;28;20211;-81
2022/10/17 07:49:12;;;;;;;4.57;4.00;;;;;;;17.01;100.00;99757.69;5086760;28;20191;-82
2022/10/17 07:51:40;;;;;;;13.13;4.90;;;;;;;16.99;100.00;99748.94;5087155;28;20191;-81
2022/10/17 07:54:10;;;;;;;9.23;4.60;;;;;;;16.98;100.00;99753.41;5090212;28;20282;-82
2022/10/17 07:56:38;;;;;;;7.77;4.87;;;;;;;17.06;100.00;99756.34;5042778;28;20195;-81
2022/10/17 07:59:07;;;;;;;6.17;4.30;;;;;;;16.96;100.00;99758.06;5091126;28;20198;-81
2022/10/17 08:01:37;;;;;;;7.83;4.00;;;;;;;17.03;100.00;99753.91;5089788;28;20219;-82
2022/10/17 08:04:07;;;;;;;6.03;4.40;;;;;;;17.20;100.00;99751.69;5084763;28;20657;-82
2022/10/17 08:06:36;;;;;;;9.93;4.60;;;;;;;17.28;100.00;99750.09;5091192;28;20255;-82
2022/10/17 08:09:04;;;;;;;8.17;4.03;;;;;;;17.37;100.00;99743.09;5046323;28;20196;-81
2022/10/17 08:11:35;;;;;;;7.80;4.07;;;;;;;17.45;100.00;99746.84;5051041;28;20246;-82
2022/10/17 08:14:03;;;;;;;9.50;4.17;;;;;;;17.62;100.00;99750.81;5043805;28;20283;-81
2022/10/17 08:16:32;;;;;;;5.20;3.60;;;;;;;17.58;100.00;99749.38;5044426;28;20196;-81
2022/10/17 08:19:01;;;;;;;5.07;3.87;;;;;;;17.71;100.00;99742.03;5042018;28;20232;-81
2022/10/17 08:21:31;;;;;;;8.17;4.03;;;;;;;17.66;100.00;99746.91;5042019;28;20200;-81
2022/10/17 08:24:01;;;;;;;9.73;3.87;;;;;;;17.57;100.00;99741.47;5043661;28;20205;-81
2022/10/17 08:26:30;;;;;;;4.57;3.60;;;;;;;17.67;100.00;99737.88;5051172;28;20265;-81
2022/10/17 08:29:01;;;;;;;6.63;3.63;;;;;;;17.87;100.00;99738.06;5085780;28;20199;-81
2022/10/17 08:31:31;;;;;;;5.50;3.73;;;;;;;17.68;100.00;99739.59;5083402;28;20280;-81
2022/10/17 08:34:00;;;;;;;6.37;3.13;;;;;;;17.90;100.00;99737.81;5083830;28;20241;-81
2022/10/17 08:36:28;;;;;;;9.83;3.63;;;;;;;17.93;100.00;99737.53;5089600;28;20196;-81
2022/10/17 08:38:58;;;;;;;5.73;3.40;;;;;;;17.82;100.00;99730.41;5088114;28;20199;-81
2022/10/17 08:41:45;;;;;;;5.60;3.20;;;;;;;17.93;100.00;99734.84;5088323;28;20312;-81
2022/10/17 08:44:26;;;;;;;4.60;3.20;;;;;;;17.92;100.00;99725.09;5083938;28;20184;-81
2022/10/17 08:47:02;;;;;;;10.20;3.20;;;;;;;18.04;100.00;99718.69;5087359;28;20745;-81
2022/10/17 08:49:41;;;;;;;7.40;3.77;;;;;;;18.14;100.00;99722.28;5085934;28;20196;-82
2022/10/17 08:52:20;;;;;;;8.70;3.20;;;;;;;18.19;100.00;99708.50;5071816;28;20431;-81
2022/10/17 08:54:50;;;;;;;5.10;3.13;;;;;;;18.37;100.00;99701.53;5085012;28;20195;-82
2022/10/17 08:57:21;;;;;;;11.17;3.60;;;;;;;18.53;100.00;99693.84;5038031;28;20237;-81
2022/10/17 08:59:55;;;;;;;6.27;2.93;;;;;;;18.60;100.00;99696.81;5084668;28;20191;-81
2022/10/17 09:02:46;;;;;;;7.37;3.30;;;;;;;18.57;100.00;99689.88;5090301;28;20225;-81
2022/10/17 09:05:27;;;;;;;6.53;2.90;;;;;;;18.77;100.00;99700.72;5088334;28;20672;-82
2022/10/17 09:08:07;;;;;;;5.97;2.73;;;;;;;18.63;100.00;99695.69;5009559;28;20221;-82
2022/10/17 09:10:46;;;;;;;5.43;2.70;;;;;;;18.76;100.00;99702.53;4988869;28;20207;-82
2022/10/17 09:13:30;;;;;;;5.90;2.87;;;;;;;18.99;100.00;99700.47;4986740;28;20222;-81
2022/10/17 09:16:36;;;;;;;5.20;2.83;;;;;;;19.12;100.00;99697.53;4989450;28;20299;-82
2022/10/17 09:19:19;;;;;;;10.17;2.90;;;;;;;19.16;100.00;99693.56;4988302;28;20222;-82
2022/10/17 09:21:55;;;;;;;6.17;3.10;;;;;;;19.26;100.00;99709.69;4984053;28;20265;-82
2022/10/17 09:24:39;;;;;;;5.90;3.13;;;;;;;19.23;100.00;99699.25;4986627;28;20195;-81
2022/10/17 09:27:20;;;;;;;6.60;3.20;;;;;;;19.33;100.00;99706.31;4985118;28;20690;-82
2022/10/17 09:29:51;;;;;;;5.20;3.00;;;;;;;19.72;100.00;99704.50;4984046;28;20269;-82
2022/10/17 09:32:24;;;;;;;9.37;3.00;;;;;;;19.82;100.00;99711.72;5009610;28;20232;-81
2022/10/17 09:34:56;;;;;;;6.13;2.57;;;;;;;19.89;100.00;99705.63;5049846;28;20635;-82
2022/10/17 09:37:33;;;;;;;6.40;2.80;;;;;;;19.93;100.00;99707.03;5061063;28;20664;-82
2022/10/17 09:40:01;;;;;;;6.93;2.67;;;;;;;20.02;100.00;99698.09;5059867;28;20220;-82
2022/10/17 09:42:32;;;;;;;5.97;3.00;;;;;;;20.14;100.00;99703.28;5063361;28;20231;-82
2022/10/17 09:45:17;;;;;;;4.90;3.07;;;;;;;20.38;100.00;99692.88;5062307;28;20195;-82
2022/10/17 09:48:01;;;;;;;5.80;2.70;;;;;;;20.28;100.00;99702.84;5063646;28;20285;-82
2022/10/17 09:50:33;;;;;;;5.33;2.60;;;;;;;20.66;100.00;99693.78;5065156;28;20201;-82
2022/10/17 09:53:08;;;;;;;4.87;2.70;;;;;;;20.74;100.00;99698.41;5066364;28;20656;-82
2022/10/17 09:55:43;;;;;;;5.13;3.07;;;;;;;20.78;100.00;99699.81;5082621;28;20277;-81
2022/10/17 09:58:16;;;;;;;6.67;2.90;;;;;;;20.81;100.00;99699.50;5093700;28;20199;-81
2022/10/17 10:00:47;;;;;;;5.77;2.70;;;;;;;20.85;100.00;99711.69;5085396;28;20249;-82
2022/10/17 10:03:19;;;;;;;5.80;2.80;;;;;;;20.84;100.00;99718.91;5052910;28;20267;-82
2022/10/17 10:06:17;;;;;;;5.93;2.63;;;;;;;21.00;100.00;99718.25;5050367;28;20224;-82
2022/10/17 10:08:50;;;;;;;3.57;2.90;;;;;;;21.14;100.00;99703.44;5048276;28;20221;-82
2022/10/17 10:11:20;;;;;;;4.80;3.00;;;;;;;21.10;100.00;99713.63;5048780;28;20672;-81
2022/10/17 10:13:49;;;;;;;5.73;3.13;;;;;;;20.95;100.00;99696.31;5051085;28;20345;-82
2022/10/17 10:16:23;;;;;;;7.37;2.93;;;;;;;20.91;100.00;99694.91;5051297;28;20201;-81
2022/10/17 10:18:53;;;;;;;4.47;3.03;;;;;;;20.94;100.00;99731.44;5049111;28;20205;-82
2022/10/17 10:21:25;;;;;;;7.67;2.87;;;;;;;20.92;100.00;99742.38;5065545;28;20211;-80
2022/10/17 10:24:13;;;;;;;5.33;2.50;;;;;;;21.25;100.00;99721.22;5094366;28;20596;-82
2022/10/17 10:26:48;;;;;;;6.67;2.57;;;;;;;21.27;100.00;99730.88;5093250;28;20210;-82
2022/10/17 10:29:24;;;;;;;5.13;2.80;;;;;;;21.30;100.00;99719.78;5095757;28;20730;-82
2022/10/17 10:31:55;;;;;;;4.10;2.70;;;;;;;21.40;100.00;99725.94;5097047;28;20200;-82
2022/10/17 10:34:27;;;;;;;7.97;2.50;;;;;;;21.71;100.00;99726.41;5091470;28;20280;-81
2022/10/17 10:37:02;;;;;;;6.27;2.73;;;;;;;22.07;100.00;99720.13;5090177;28;20188;-82
2022/10/17 10:39:58;;;;;;;4.77;3.00;;;;;;;21.49;100.00;99734.94;5007627;28;20252;-82
2022/10/17 10:42:29;;;;;;;6.87;2.90;;;;;;;21.43;100.00;99719.41;5006637;28;20198;-81
2022/10/17 10:45:04;;;;;;;4.97;2.80;;;;;;;21.66;100.00;99736.81;5009741;28;20197;-81
2022/10/17 10:47:39;;;;;;;4.03;2.70;;;;;;;21.68;100.00;99721.31;5010655;28;20222;-81
2022/10/17 10:50:43;;;;;;;5.50;2.87;;;;;;;21.99;100.00;99724.41;4968028;28;20212;-81
2022/10/17 10:53:33;;;;;;;4.23;2.73;;;;;;;21.93;100.00;99732.31;5015095;28;20206;-81
2022/10/17 10:56:06;;;;;;;5.50;2.87;;;;;;;22.31;100.00;99723.00;5012651;28;20343;-81
2022/10/17 10:58:43;;;;;;;5.13;2.87;;;;;;;22.17;100.00;99728.97;5078808;28;20221;-82
2022/10/17 11:01:20;;;;;;;4.40;2.80;;;;;;;22.63;100.00;99733.13;5090615;28;20248;-82
2022/10/17 11:04:00;;;;;;;5.87;2.70;;;;;;;22.65;100.00;99732.97;5088376;28;20187;-81
2022/10/17 11:06:36;;;;;;;7.07;2.90;;;;;;;22.30;100.00;99726.72;5084944;28;20247;-81
2022/10/17 11:09:20;;;;;;;8.23;3.50;;;;;;;22.55;100.00;99727.69;4953013;29;20216;-81
2022/10/17 11:11:57;;;;;;;7.30;3.30;;;;;;;22.81;100.00;99733.88;4952759;29;20188;-82
2022/10/17 11:14:41;;;;;;;5.90;3.10;;;;;;;22.90;100.00;99720.44;4953163;29;20283;-81
2022/10/17 11:17:20;;;;;;;5.63;2.70;;;;;;;23.08;100.00;99727.44;4951948;29;20212;-81
2022/10/17 11:20:07;;;;;;;7.70;2.87;;;;;;;23.04;100.00;99709.00;4898248;29;20713;-82
2022/10/17 11:22:45;;;;;;;4.03;2.80;;;;;;;23.18;100.00;99702.97;4912412;29;20225;-81
2022/10/17 11:25:29;;;;;;;8.23;3.07;;;;;;;23.03;100.00;99708.16;4899075;29;20194;-81
2022/10/17 11:27:57;;;;;;;7.37;2.60;;;;;;;22.76;100.00;99717.31;5023088;28;20220;-81
2022/10/17 11:30:43;;;;;;;7.60;2.83;;;;;;;22.95;100.00;99712.69;5050144;28;20189;-81
2022/10/17 11:33:15;;;;;;;3.50;2.57;;;;;;;23.30;100.00;99711.59;5050589;28;20204;-82
2022/10/17 11:35:46;;;;;;;5.30;2.50;;;;;;;23.57;100.00;99710.47;5048417;28;20232;-81
2022/10/17 11:38:21;;;;;;;5.07;2.67;;;;;;;23.20;100.00;99714.47;5065776;28;20204;-81
2022/10/17 11:40:54;;;;;;;7.22;3.10;;;;;;;23.59;100.00;99714.72;5069362;28;20631;-81
2022/10/17 11:43:29;;;;;;;5.83;2.80;;;;;;;23.60;100.00;99713.69;5072532;28;20209;-81
2022/10/17 11:46:01;;;;;;;6.50;2.60;;;;;;;23.67;100.00;99712.03;5070196;28;20250;-82
2022/10/17 11:48:37;;;;;;;4.00;2.75;;;;;;;23.67;100.00;99713.88;5072687;28;20262;-81
2022/10/17 11:51:09;;;;;;;5.68;2.70;;;;;;;23.45;100.00;99707.25;5073979;28;20203;-81